createdAt,value
2023-03-20T00:02:24.205Z,5.99
2023-03-20T00:04:55.948Z,5.94
2023-03-20T00:07:23.694Z,5.97
2023-03-20T00:10:02.795Z,6.03
2023-03-20T00:12:50.465Z,5.83
2023-03-20T00:15:33.549Z,5.92
2023-03-20T00:18:01.199Z,5.71
2023-03-20T00:20:31.701Z,5.75
2023-03-20T00:22:59.805Z,5.69
2023-03-20T00:25:28.495Z,5.57
2023-03-20T00:27:56.716Z,5.62
2023-03-20T00:30:29.267Z,5.69
2023-03-20T00:32:59.039Z,5.53
2023-03-20T00:35:32.123Z,5.56
2023-03-20T00:38:03.911Z,5.61
2023-03-20T00:40:32.076Z,5.39
2023-03-20T00:43:03.580Z,5.44
2023-03-20T00:45:34.577Z,5.43
2023-03-20T00:48:03.757Z,5.36
2023-03-20T00:50:31.946Z,5.26
2023-03-20T00:52:59.584Z,5.31
2023-03-20T00:55:29.587Z,5.27
2023-03-20T00:58:03.044Z,5.31
2023-03-20T01:00:36.550Z,5.36
2023-03-20T01:03:14.486Z,5.39
2023-03-20T01:05:43.321Z,5.16
2023-03-20T01:08:15.116Z,5.13
2023-03-20T01:10:44.637Z,5.14
2023-03-20T01:13:32.640Z,5.02
2023-03-20T01:16:00.644Z,5.13
2023-03-20T01:18:28.376Z,4.97
2023-03-20T01:20:55.979Z,4.79
2023-03-20T01:23:24.591Z,4.71
2023-03-20T01:25:54.802Z,4.73
2023-03-20T01:28:24.443Z,4.63
2023-03-20T01:30:52.763Z,4.51
2023-03-20T01:33:40.084Z,4.47
2023-03-20T01:36:11.962Z,4.68
2023-03-20T01:38:40.590Z,4.58
2023-03-20T01:41:13.545Z,4.53
2023-03-20T01:43:43.282Z,4.57
2023-03-20T01:46:18.629Z,4.49
2023-03-20T01:48:52.341Z,4.42
2023-03-20T01:51:22.927Z,4.46
2023-03-20T01:53:55.031Z,4.46
2023-03-20T01:56:33.013Z,4.35
2023-03-20T01:59:09.662Z,4.41
2023-03-20T02:01:38.375Z,4.28
2023-03-20T02:04:09.222Z,4.37
2023-03-20T02:06:38.678Z,4.23
2023-03-20T02:09:08.920Z,4.28
2023-03-20T02:11:38.391Z,4.14
2023-03-20T02:14:07.153Z,4.14
2023-03-20T02:16:35.607Z,4.15
2023-03-20T02:19:06.526Z,4.09
2023-03-20T02:21:49.130Z,4.15
2023-03-20T02:24:48.629Z,4.10
2023-03-20T02:27:43.299Z,3.99
2023-03-20T02:30:55.725Z,4.06
2023-03-20T02:33:53.794Z,4.08
2023-03-20T02:36:35.886Z,3.85
2023-03-20T02:39:15.252Z,3.90
2023-03-20T02:41:47.894Z,3.94
2023-03-20T02:44:36.433Z,3.87
2023-03-20T02:47:06.872Z,3.83
2023-03-20T02:49:52.143Z,3.75
2023-03-20T02:52:32.566Z,3.86
2023-03-20T02:55:19.011Z,3.80
2023-03-20T02:58:03.408Z,3.81
2023-03-20T03:00:40.002Z,3.83
2023-03-20T03:03:20.776Z,3.76
2023-03-20T03:05:55.744Z,3.73
2023-03-20T03:08:28.751Z,3.76
2023-03-20T03:11:07.502Z,3.83
2023-03-20T03:13:56.770Z,3.69
2023-03-20T03:16:30.740Z,3.68
2023-03-20T03:19:05.246Z,3.63
2023-03-20T03:21:35.502Z,3.66
2023-03-20T03:24:05.351Z,3.75
2023-03-20T03:26:39.953Z,3.72
2023-03-20T03:29:15.814Z,3.80
2023-03-20T03:31:46.177Z,3.77
2023-03-20T03:34:17.860Z,3.60
2023-03-20T03:37:06.717Z,3.78
2023-03-20T03:39:51.189Z,3.77
2023-03-20T03:42:31.262Z,3.74
2023-03-20T03:45:02.412Z,3.54
2023-03-20T03:47:40.308Z,3.74
2023-03-20T03:50:17.051Z,3.65
2023-03-20T03:52:47.049Z,3.47
2023-03-20T03:55:39.617Z,3.53
2023-03-20T03:58:22.731Z,3.64
2023-03-20T04:00:52.549Z,3.57
2023-03-20T04:03:24.436Z,3.65
2023-03-20T04:05:56.343Z,3.63
2023-03-20T04:08:23.815Z,3.63
2023-03-20T04:10:51.457Z,3.48
2023-03-20T04:13:19.172Z,3.53
2023-03-20T04:15:46.790Z,3.62
2023-03-20T04:18:19.695Z,3.66
2023-03-20T04:20:47.671Z,3.48
2023-03-20T04:23:15.879Z,3.42
2023-03-20T04:25:44.871Z,3.53
2023-03-20T04:28:12.385Z,3.64
2023-03-20T04:30:40.014Z,3.67
2023-03-20T04:33:08.523Z,3.59
2023-03-20T04:35:36.653Z,3.65
2023-03-20T04:38:05.411Z,3.78
2023-03-20T04:40:33.615Z,3.98
2023-03-20T04:43:01.118Z,4.04
2023-03-20T04:45:28.583Z,4.11
2023-03-20T04:47:56.260Z,4.07
2023-03-20T04:50:24.297Z,4.01
2023-03-20T04:52:51.742Z,4.22
2023-03-20T04:55:22.755Z,4.34
2023-03-20T04:57:51.043Z,4.35
2023-03-20T05:00:19.013Z,4.57
2023-03-20T05:02:47.005Z,4.67
2023-03-20T05:05:14.402Z,4.75
2023-03-20T05:07:44.035Z,4.68
2023-03-20T05:10:12.080Z,4.88
2023-03-20T05:12:39.476Z,4.62
2023-03-20T05:15:09.060Z,4.61
2023-03-20T05:17:36.864Z,4.77
2023-03-20T05:20:05.310Z,4.71
2023-03-20T05:22:33.245Z,4.72
2023-03-20T05:25:01.410Z,4.71
2023-03-20T05:27:30.328Z,4.82
2023-03-20T05:29:57.890Z,4.78
2023-03-20T05:32:25.546Z,5.03
2023-03-20T05:34:53.098Z,5.01
2023-03-20T05:37:21.317Z,5.21
2023-03-20T05:39:48.691Z,5.15
2023-03-20T05:42:16.236Z,5.25
2023-03-20T05:44:43.863Z,5.29
2023-03-20T05:47:11.661Z,5.30
2023-03-20T05:49:39.016Z,5.05
2023-03-20T05:52:08.261Z,5.22
2023-03-20T05:54:37.122Z,5.24
2023-03-20T05:57:10.000Z,5.33
2023-03-20T05:59:37.531Z,5.47
2023-03-20T06:02:04.893Z,5.64
2023-03-20T06:04:37.424Z,5.41
2023-03-20T06:07:06.402Z,5.39
2023-03-20T06:09:34.516Z,5.16
2023-03-20T06:12:02.037Z,5.41
2023-03-20T06:14:29.823Z,5.30
2023-03-20T06:16:58.977Z,5.62
2023-03-20T06:19:26.732Z,5.68
2023-03-20T06:21:54.196Z,5.81
2023-03-20T06:24:21.759Z,5.90
2023-03-20T06:26:49.689Z,5.66
2023-03-20T06:29:17.447Z,5.73
2023-03-20T06:31:46.875Z,5.88
2023-03-20T06:34:14.989Z,5.76
2023-03-20T06:36:47.066Z,5.79
2023-03-20T06:39:14.962Z,6.07
2023-03-20T06:41:42.613Z,5.62
2023-03-20T06:44:10.950Z,5.56
2023-03-20T06:46:38.468Z,6.05
2023-03-20T06:49:09.519Z,6.13
2023-03-20T06:51:37.607Z,6.32
2023-03-20T06:54:05.191Z,6.29
2023-03-20T06:56:33.005Z,6.22
2023-03-20T06:59:00.465Z,6.49
2023-03-20T07:01:28.748Z,6.46
2023-03-20T07:03:56.275Z,6.56
2023-03-20T07:06:23.762Z,6.59
2023-03-20T07:08:53.005Z,6.71
2023-03-20T07:11:21.160Z,6.75
2023-03-20T07:13:50.756Z,6.79
2023-03-20T07:16:18.418Z,6.87
2023-03-20T07:18:45.929Z,6.80
2023-03-20T07:21:20.431Z,6.93
2023-03-20T07:23:49.196Z,6.93
2023-03-20T07:26:17.113Z,7.14
2023-03-20T07:28:45.310Z,7.75
2023-03-20T07:31:25.574Z,8.11
2023-03-20T07:33:53.126Z,8.02
2023-03-20T07:36:21.428Z,7.96
2023-03-20T07:38:48.865Z,8.04
2023-03-20T07:41:16.905Z,8.54
2023-03-20T07:43:44.912Z,8.35
2023-03-20T07:46:15.574Z,8.46
2023-03-20T07:48:43.342Z,8.23
2023-03-20T07:51:10.943Z,8.44
2023-03-20T07:53:41.214Z,8.55
2023-03-20T07:56:09.527Z,8.32
2023-03-20T07:58:37.596Z,8.69
2023-03-20T08:01:05.379Z,8.58
2023-03-20T08:03:32.995Z,8.17
2023-03-20T08:06:13.304Z,8.26
2023-03-20T08:08:41.128Z,7.96
2023-03-20T08:11:10.100Z,7.98
2023-03-20T08:13:37.922Z,8.06
2023-03-20T08:16:06.160Z,8.32
2023-03-20T08:18:36.146Z,8.39
2023-03-20T08:21:05.260Z,7.76
2023-03-20T08:23:32.794Z,8.10
2023-03-20T08:26:01.644Z,8.13
2023-03-20T08:28:46.231Z,8.36
2023-03-20T08:31:15.465Z,8.21
2023-03-20T08:33:43.582Z,8.24
2023-03-20T08:36:11.672Z,8.51
2023-03-20T08:38:39.529Z,8.40
2023-03-20T08:41:07.813Z,8.54
2023-03-20T08:43:36.511Z,8.46
2023-03-20T08:46:04.524Z,8.66
2023-03-20T08:48:33.106Z,8.73
2023-03-20T08:51:08.429Z,8.55
2023-03-20T08:53:36.981Z,8.65
2023-03-20T08:56:05.088Z,8.72
2023-03-20T08:58:32.703Z,8.75
2023-03-20T09:01:05.489Z,8.82
2023-03-20T09:03:33.010Z,8.98
2023-03-20T09:06:01.895Z,8.70
2023-03-20T09:08:29.834Z,9.18
2023-03-20T09:11:00.541Z,9.14
2023-03-20T09:13:28.555Z,9.20
2023-03-20T09:15:56.973Z,9.31
2023-03-20T09:18:25.504Z,9.33
2023-03-20T09:20:53.195Z,9.43
2023-03-20T09:23:20.664Z,9.74
2023-03-20T09:25:51.622Z,9.76
2023-03-20T09:28:19.197Z,9.15
2023-03-20T09:30:48.223Z,9.72
2023-03-20T09:33:16.137Z,10.18
2023-03-20T09:35:43.956Z,10.54
2023-03-20T09:38:12.461Z,10.18
2023-03-20T09:40:59.022Z,10.55
2023-03-20T09:43:53.905Z,10.47
2023-03-20T09:46:49.502Z,10.92
2023-03-20T09:49:37.588Z,10.83
2023-03-20T09:52:13.013Z,10.91
2023-03-20T09:54:53.959Z,10.30
2023-03-20T09:57:24.547Z,10.28
2023-03-20T09:59:57.721Z,10.62
2023-03-20T10:02:45.988Z,10.79
2023-03-20T10:05:39.061Z,11.21
2023-03-20T10:08:16.148Z,11.71
2023-03-20T10:10:43.858Z,11.42
2023-03-20T10:13:26.483Z,11.42
2023-03-20T10:16:02.847Z,11.65
2023-03-20T10:18:35.608Z,11.60
2023-03-20T10:21:13.795Z,12.18
2023-03-20T10:23:59.029Z,12.39
2023-03-20T10:26:28.735Z,12.11
2023-03-20T10:29:19.519Z,12.25
2023-03-20T10:32:01.193Z,12.24
2023-03-20T10:34:49.136Z,11.59
2023-03-20T10:37:32.583Z,11.98
2023-03-20T10:40:23.586Z,12.33
2023-03-20T10:42:54.294Z,11.69
2023-03-20T10:45:27.856Z,12.20
2023-03-20T10:47:58.938Z,11.92
2023-03-20T10:50:33.844Z,12.04
2023-03-20T10:53:03.309Z,12.31
2023-03-20T10:55:38.143Z,12.63
2023-03-20T10:58:18.562Z,12.61
2023-03-20T11:00:56.272Z,12.96
2023-03-20T11:03:29.612Z,12.48
2023-03-20T11:06:09.732Z,12.34
2023-03-20T11:08:49.379Z,12.77
2023-03-20T11:11:26.704Z,12.79
2023-03-20T11:13:54.923Z,12.92
2023-03-20T11:16:36.824Z,13.06
2023-03-20T11:19:07.553Z,13.20
2023-03-20T11:21:57.791Z,12.60
2023-03-20T11:24:46.464Z,12.76
2023-03-20T11:27:20.306Z,12.21
2023-03-20T11:29:51.284Z,13.06
2023-03-20T11:32:42.305Z,12.68
2023-03-20T11:35:19.343Z,13.23
2023-03-20T11:37:51.277Z,13.52
2023-03-20T11:40:44.940Z,12.65
2023-03-20T11:43:18.835Z,12.92
2023-03-20T11:45:50.767Z,13.14
2023-03-20T11:48:45.941Z,13.47
2023-03-20T11:51:20.159Z,13.28
2023-03-20T11:54:01.886Z,13.28
2023-03-20T11:56:33.395Z,13.44
2023-03-20T11:59:10.585Z,13.28
2023-03-20T12:01:44.950Z,13.42
2023-03-20T12:04:19.291Z,12.87
2023-03-20T12:07:00.839Z,13.06
2023-03-20T12:09:42.867Z,13.33
2023-03-20T12:12:19.087Z,13.53
2023-03-20T12:15:05.503Z,13.83
2023-03-20T12:17:50.071Z,14.30
2023-03-20T12:20:37.041Z,13.41
2023-03-20T12:23:11.302Z,13.55
2023-03-20T12:25:50.204Z,14.43
2023-03-20T12:28:32.512Z,14.62
2023-03-20T12:30:59.937Z,14.52
2023-03-20T12:33:49.959Z,14.11
2023-03-20T12:36:28.940Z,13.81
2023-03-20T12:38:57.233Z,14.03
2023-03-20T12:42:07.414Z,13.76
2023-03-20T12:44:47.308Z,14.23
2023-03-20T12:47:44.965Z,14.20
2023-03-20T12:50:36.231Z,15.03
2023-03-20T12:53:26.703Z,15.06
2023-03-20T12:56:00.769Z,14.92
2023-03-20T12:58:50.192Z,14.81
2023-03-20T13:01:22.038Z,15.15
2023-03-20T13:04:14.368Z,15.46
2023-03-20T13:06:59.095Z,15.57
2023-03-20T13:09:44.707Z,15.92
2023-03-20T13:12:24.701Z,15.57
2023-03-20T13:15:05.404Z,15.89
2023-03-20T13:17:35.813Z,16.35
2023-03-20T13:20:27.678Z,16.85
2023-03-20T13:23:10.504Z,16.94
2023-03-20T13:26:00.877Z,16.21
2023-03-20T13:28:47.173Z,16.24
2023-03-20T13:31:34.404Z,16.97
2023-03-20T13:34:31.704Z,16.32
2023-03-20T13:37:23.729Z,16.92
2023-03-20T13:40:13.495Z,16.52
2023-03-20T13:42:49.524Z,16.40
2023-03-20T13:45:41.247Z,17.09
2023-03-20T13:48:26.956Z,17.33
2023-03-20T13:51:07.874Z,16.90
2023-03-20T13:54:03.033Z,16.77
2023-03-20T13:56:44.280Z,16.86
2023-03-20T13:59:38.251Z,16.41
2023-03-20T14:02:21.770Z,16.96
2023-03-20T14:05:03.715Z,16.96
2023-03-20T14:07:37.450Z,16.45
2023-03-20T14:10:37.525Z,16.96
2023-03-20T14:13:11.601Z,16.34
2023-03-20T14:15:57.934Z,16.14
2023-03-20T14:18:26.636Z,16.07
2023-03-20T14:21:04.581Z,15.60
2023-03-20T14:23:39.372Z,15.48
2023-03-20T14:26:18.315Z,15.31
2023-03-20T14:28:54.557Z,15.68
2023-03-20T14:31:31.097Z,15.56
2023-03-20T14:34:18.377Z,15.14
2023-03-20T14:36:51.878Z,15.38
2023-03-20T14:39:54.057Z,14.80
2023-03-20T14:42:48.227Z,14.77
2023-03-20T14:45:43.747Z,14.37
2023-03-20T14:48:46.291Z,14.46
2023-03-20T14:51:19.408Z,13.91
2023-03-20T14:53:58.754Z,13.17
2023-03-20T14:56:33.353Z,12.73
2023-03-20T14:59:07.318Z,13.06
2023-03-20T15:01:38.183Z,12.71
2023-03-20T15:04:28.194Z,12.34
2023-03-20T15:07:12.319Z,12.11
2023-03-20T15:09:44.596Z,11.96
2023-03-20T15:12:23.795Z,11.81
2023-03-20T15:14:59.500Z,11.78
2023-03-20T15:17:37.320Z,11.63
2023-03-20T15:20:16.611Z,11.18
2023-03-20T15:22:58.533Z,11.11
2023-03-20T15:25:32.768Z,11.19
2023-03-20T15:28:05.904Z,10.85
2023-03-20T15:30:38.112Z,11.06
2023-03-20T15:33:06.744Z,10.87
2023-03-20T15:35:34.420Z,10.50
2023-03-20T15:38:07.509Z,10.46
2023-03-20T15:40:50.493Z,10.37
2023-03-20T15:43:22.867Z,10.20
2023-03-20T15:46:02.917Z,10.26
2023-03-20T15:48:37.702Z,10.16
2023-03-20T15:51:11.549Z,10.27
2023-03-20T15:53:40.913Z,10.03
2023-03-20T15:56:18.255Z,9.74
2023-03-20T15:58:50.589Z,9.52
2023-03-20T16:01:23.978Z,9.50
2023-03-20T16:03:52.965Z,9.31
2023-03-20T16:06:24.448Z,9.24
2023-03-20T16:09:05.287Z,9.24
2023-03-20T16:11:40.797Z,9.16
2023-03-20T16:14:26.283Z,9.14
2023-03-20T16:16:56.216Z,9.06
2023-03-20T16:19:26.436Z,8.98
2023-03-20T16:21:58.603Z,8.97
2023-03-20T16:24:38.390Z,8.84
2023-03-20T16:27:09.081Z,8.82
2023-03-20T16:29:42.354Z,8.89
2023-03-20T16:32:30.597Z,8.84
2023-03-20T16:34:59.474Z,8.79
2023-03-20T16:37:31.972Z,8.78
2023-03-20T16:40:18.346Z,8.56
2023-03-20T16:42:46.616Z,8.64
2023-03-20T16:45:30.428Z,8.52
2023-03-20T16:48:26.122Z,8.43
2023-03-20T16:51:07.698Z,8.50
2023-03-20T16:53:44.809Z,8.34
2023-03-20T16:56:22.787Z,8.47
2023-03-20T16:58:50.318Z,8.39
2023-03-20T17:01:29.018Z,8.19
2023-03-20T17:04:11.394Z,8.19
2023-03-20T17:06:46.241Z,8.15
2023-03-20T17:09:13.716Z,8.19
2023-03-20T17:11:47.962Z,8.08
2023-03-20T17:14:20.781Z,8.08
2023-03-20T17:16:51.338Z,8.03
2023-03-20T17:19:19.365Z,7.96
2023-03-20T17:21:47.839Z,7.91
2023-03-20T17:24:17.390Z,7.99
2023-03-20T17:26:52.639Z,7.77
2023-03-20T17:29:20.430Z,7.72
2023-03-20T17:31:48.003Z,7.66
2023-03-20T17:34:15.578Z,7.65
2023-03-20T17:36:43.268Z,7.58
2023-03-20T17:39:21.068Z,7.46
2023-03-20T17:41:48.946Z,7.47
2023-03-20T17:44:16.404Z,7.37
2023-03-20T17:47:03.696Z,7.28
2023-03-20T17:49:33.905Z,7.28
2023-03-20T17:52:01.372Z,7.24
2023-03-20T17:54:33.092Z,7.01
2023-03-20T17:57:01.660Z,6.85
2023-03-20T17:59:31.257Z,6.85
2023-03-20T18:01:58.812Z,6.67
2023-03-20T18:04:27.175Z,6.69
2023-03-20T18:06:57.997Z,6.67
2023-03-20T18:09:26.188Z,6.60
2023-03-20T18:11:55.336Z,6.65
2023-03-20T18:14:26.237Z,6.71
2023-03-20T18:16:53.775Z,6.68
2023-03-20T18:19:25.776Z,6.65
2023-03-20T18:21:55.042Z,6.72
2023-03-20T18:24:23.389Z,6.66
2023-03-20T18:26:52.031Z,6.67
2023-03-20T18:29:20.505Z,6.68
2023-03-20T18:31:49.500Z,6.57
2023-03-20T18:34:18.662Z,6.55
2023-03-20T18:36:46.498Z,6.51
2023-03-20T18:39:24.122Z,6.48
2023-03-20T18:41:52.458Z,6.47
2023-03-20T18:44:19.995Z,6.41
2023-03-20T18:46:47.590Z,6.34
2023-03-20T18:49:17.423Z,6.32
2023-03-20T18:51:46.991Z,6.25
2023-03-20T18:54:15.689Z,6.19
2023-03-20T18:56:44.752Z,6.18
2023-03-20T18:59:13.203Z,6.19
2023-03-20T19:01:41.298Z,6.08
2023-03-20T19:04:19.674Z,6.17
2023-03-20T19:06:48.739Z,6.02
2023-03-20T19:09:18.256Z,6.11
2023-03-20T19:11:47.385Z,6.18
2023-03-20T19:14:15.027Z,6.10
2023-03-20T19:16:43.112Z,5.99
2023-03-20T19:19:15.976Z,5.86
2023-03-20T19:21:43.667Z,5.93
2023-03-20T19:24:16.052Z,5.87
2023-03-20T19:26:43.566Z,5.80
2023-03-20T19:29:13.951Z,5.69
2023-03-20T19:31:43.494Z,5.63
2023-03-20T19:34:28.052Z,5.78
2023-03-20T19:37:06.592Z,5.63
2023-03-20T19:39:34.117Z,5.52
2023-03-20T19:42:19.868Z,5.45
2023-03-20T19:45:09.796Z,5.43
2023-03-20T19:47:39.692Z,5.46
2023-03-20T19:50:34.083Z,5.33
2023-03-20T19:53:12.741Z,5.38
2023-03-20T19:55:40.653Z,5.34
2023-03-20T19:58:08.481Z,5.31
2023-03-20T20:01:11.639Z,5.17
2023-03-20T20:03:27.863Z,5.14
2023-03-20T20:06:02.377Z,5.22
2023-03-20T20:08:45.185Z,5.13
2023-03-20T20:11:16.232Z,4.96
2023-03-20T20:14:04.205Z,4.92
2023-03-20T20:16:31.632Z,4.80
2023-03-20T20:19:04.301Z,4.86
2023-03-20T20:24:22.633Z,4.76
2023-03-20T20:27:15.324Z,4.69
2023-03-20T20:29:47.895Z,4.52
2023-03-20T20:32:16.219Z,4.58
2023-03-20T20:40:21.057Z,4.50
2023-03-20T20:42:52.065Z,4.48
2023-03-20T20:45:28.072Z,4.44
2023-03-20T20:47:57.297Z,4.41
2023-03-20T20:50:28.539Z,4.39
2023-03-20T20:52:56.964Z,4.53
2023-03-20T20:55:25.741Z,4.51
2023-03-20T20:57:55.864Z,4.51
2023-03-20T21:00:37.113Z,4.50
2023-03-20T21:03:13.118Z,4.57
2023-03-20T21:05:43.478Z,4.49
2023-03-20T21:08:13.531Z,4.72
2023-03-20T21:10:41.133Z,4.69
2023-03-20T21:13:08.736Z,4.42
2023-03-20T21:15:37.419Z,4.29
2023-03-20T21:18:05.369Z,4.39
2023-03-20T21:20:33.762Z,4.17
2023-03-20T21:23:01.341Z,4.13
2023-03-20T21:25:39.687Z,4.19
2023-03-20T21:28:09.610Z,4.00
2023-03-20T21:30:44.154Z,4.07
2023-03-20T21:33:24.002Z,4.07
2023-03-20T21:35:52.813Z,3.99
2023-03-20T21:41:10.160Z,3.85
2023-03-20T21:43:38.170Z,3.91
2023-03-20T21:55:05.301Z,4.03
2023-03-20T21:57:55.732Z,4.04
2023-03-20T22:02:58.248Z,3.95
2023-03-20T22:06:02.545Z,4.03
2023-03-20T22:14:51.667Z,3.82
2023-03-20T22:20:15.234Z,3.77
2023-03-20T22:25:56.017Z,3.77
2023-03-20T22:37:17.092Z,3.54
2023-03-20T22:39:54.438Z,3.57
2023-03-20T22:45:00.628Z,3.49
2023-03-20T22:47:31.033Z,3.47
2023-03-20T22:49:58.965Z,3.49
2023-03-20T22:52:38.101Z,3.47
2023-03-20T22:55:10.049Z,3.48
2023-03-20T22:57:45.581Z,3.43
2023-03-20T23:00:25.220Z,3.54
2023-03-20T23:02:57.340Z,3.32
2023-03-20T23:05:31.224Z,3.22
2023-03-20T23:07:59.000Z,3.28
2023-03-20T23:10:26.816Z,3.33
2023-03-20T23:12:54.304Z,3.42
2023-03-20T23:15:21.687Z,3.39
2023-03-20T23:17:50.367Z,3.36
2023-03-20T23:20:24.185Z,3.35
2023-03-20T23:22:52.009Z,3.27
2023-03-20T23:25:30.989Z,3.33
2023-03-20T23:28:07.297Z,3.34
2023-03-20T23:30:46.541Z,3.29
2023-03-20T23:33:19.497Z,3.32
2023-03-20T23:35:48.366Z,3.40
2023-03-20T23:38:15.971Z,3.34
2023-03-20T23:40:49.359Z,3.27
2023-03-20T23:43:17.166Z,3.30
2023-03-20T23:45:45.858Z,3.32
2023-03-20T23:48:15.877Z,3.34
2023-03-20T23:50:52.631Z,3.48
2023-03-20T23:53:22.134Z,3.42
2023-03-20T23:55:52.225Z,3.29
2023-03-20T23:58:25.231Z,3.28
